Time;durP1;ratioP1;P1;durP2;ratioP2;P2;SDS_P1;SDS_P2;PMS_P1;PMS_P2;Temp;Humidity;BMP_temperature;BMP_pressure;BME280_temperature;BME280_humidity;BME280_pressure;Samples;Min_cycle;Max_cycle;Signal;HPM_P1;HPM_P2
2022/10/16 00:01:06;;;;;;;;;;;;;;;;;;4987850;28;19924;-81
2022/10/16 00:03:53;;;;;;;;;;;;;;;;;;4985413;28;20288;-81
2022/10/16 00:06:39;;;;;;;;;;;;;;;;;;4989064;28;20293;-81
2022/10/16 00:09:26;;;;;;;;;;;;;;;;;;4999688;28;19928;-81
2022/10/16 00:12:12;;;;;;;;;;;;;;;;;;4984343;28;19925;-81
2022/10/16 00:14:59;;;;;;;;;;;;;;;;;;4986332;28;20315;-82
2022/10/16 00:17:45;;;;;;;;;;;;;;;;;;4987285;28;19913;-81
2022/10/16 00:20:33;;;;;;;;;;;;;;;;;;4998547;28;19964;-82
2022/10/16 00:23:19;;;;;;;;;;;;;;;;;;4983930;28;19921;-82
2022/10/16 00:25:59;;;;;;;;;;;;;;;;;;4981674;28;19925;-81
2022/10/16 00:28:44;;;;;;;;;;;;;;;;;;4999358;28;20384;-81
2022/10/16 00:31:31;;;;;;;;;;;;;;;;;;4986183;28;19914;-80
2022/10/16 00:34:17;;;;;;;;;;;;;;;;;;4989924;28;19932;-81
2022/10/16 00:37:04;;;;;;;;;;;;;;;;;;4997885;28;19941;-81
2022/10/16 00:39:52;;;;;;;;;;;;;;;;;;4985267;28;19921;-81
2022/10/16 00:42:38;;;;;;;;;;;;;;;;;;4992814;28;20847;-81
2022/10/16 00:45:25;;;;;;;;;;;;;;;;;;5000834;28;19920;-81
2022/10/16 00:48:11;;;;;;;;;;;;;;;;;;5003605;28;20308;-80
2022/10/16 00:50:58;;;;;;;;;;;;;;;;;;5000506;28;19920;-78
2022/10/16 00:53:44;;;;;;;;;;;;;;;;;;5000212;28;20308;-78
2022/10/16 00:56:31;;;;;;;;;;;;;;;;;;4986921;28;19922;-79
2022/10/16 00:59:17;;;;;;;;;;;;;;;;;;5001176;28;19917;-80
2022/10/16 01:02:04;;;;;;;;;;;;;;;;;;5000678;28;19914;-80
2022/10/16 01:04:50;;;;;;;;;;;;;;;;;;4978735;28;20025;-82
2022/10/16 01:07:37;;;;;;;;;;;;;;;;;;4985222;28;20734;-81
2022/10/16 01:10:23;;;;;;;;;;;;;;;;;;4989817;28;20309;-81
2022/10/16 01:13:10;;;;;;;;;;;;;;;;;;5003037;28;19920;-81
2022/10/16 01:15:57;;;;;;;;;;;;;;;;;;4984280;28;19926;-81
2022/10/16 01:18:44;;;;;;;;;;;;;;;;;;5000849;28;19914;-81
2022/10/16 01:21:30;;;;;;;;;;;;;;;;;;5002182;28;19951;-81
2022/10/16 01:24:17;;;;;;;;;;;;;;;;;;4990811;28;19914;-81
2022/10/16 01:27:04;;;;;;;;;;;;;;;;;;4985261;28;19925;-81
2022/10/16 01:29:50;;;;;;;;;;;;;;;;;;4982561;28;19922;-81
2022/10/16 01:32:37;;;;;;;;;;;;;;;;;;4995888;28;20283;-81
2022/10/16 01:35:23;;;;;;;;;;;;;;;;;;4980328;28;19928;-80
2022/10/16 01:38:10;;;;;;;;;;;;;;;;;;4983236;28;19925;-80
2022/10/16 01:40:57;;;;;;;;;;;;;;;;;;4982829;28;19949;-80
2022/10/16 01:43:43;;;;;;;;;;;;;;;;;;4982178;28;19920;-81
2022/10/16 01:46:30;;;;;;;;;;;;;;;;;;4984724;28;20365;-81
2022/10/16 01:49:16;;;;;;;;;;;;;;;;;;4985388;28;19925;-82
2022/10/16 01:52:03;;;;;;;;;;;;;;;;;;4985515;28;19921;-81
2022/10/16 01:54:49;;;;;;;;;;;;;;;;;;4981407;28;19914;-81
2022/10/16 01:57:36;;;;;;;;;;;;;;;;;;4981112;28;20419;-83
2022/10/16 02:00:22;;;;;;;;;;;;;;;;;;4982232;28;19921;-81
2022/10/16 02:03:08;;;;;;;;;;;;;;;;;;4985320;28;19914;-80
2022/10/16 02:05:55;;;;;;;;;;;;;;;;;;4982516;28;19914;-80
2022/10/16 02:08:43;;;;;;;;;;;;;;;;;;4981884;28;19929;-80
2022/10/16 02:11:30;;;;;;;;;;;;;;;;;;4979542;28;19918;-80
2022/10/16 02:14:16;;;;;;;;;;;;;;;;;;4980715;28;19924;-81
2022/10/16 02:17:03;;;;;;;;;;;;;;;;;;4982086;28;20305;-81
2022/10/16 02:19:49;;;;;;;;;;;;;;;;;;4984441;28;19914;-81
2022/10/16 02:22:36;;;;;;;;;;;;;;;;;;4983039;28;19918;-81
2022/10/16 02:25:22;;;;;;;;;;;;;;;;;;4985876;28;19930;-79
2022/10/16 02:28:09;;;;;;;;;;;;;;;;;;5002044;28;19921;-80
2022/10/16 02:30:55;;;;;;;;;;;;;;;;;;4985591;28;19936;-80
2022/10/16 02:33:42;;;;;;;;;;;;;;;;;;4999417;28;19928;-81
2022/10/16 02:36:29;;;;;;;;;;;;;;;;;;4989498;28;19932;-80
2022/10/16 02:39:15;;;;;;;;;;;;;;;;;;5003986;28;20404;-81
2022/10/16 02:42:01;;;;;;;;;;;;;;;;;;4985663;28;19920;-80
2022/10/16 02:44:48;;;;;;;;;;;;;;;;;;5004154;28;19914;-80
2022/10/16 02:47:34;;;;;;;;;;;;;;;;;;4987397;28;19910;-80
2022/10/16 02:50:21;;;;;;;;;;;;;;;;;;4999608;28;19920;-80
2022/10/16 02:53:08;;;;;;;;;;;;;;;;;;4989806;28;19913;-81
2022/10/16 02:55:54;;;;;;;;;;;;;;;;;;4986818;28;19926;-80
2022/10/16 02:58:41;;;;;;;;;;;;;;;;;;4999710;28;19913;-80
2022/10/16 03:01:27;;;;;;;;;;;;;;;;;;4999952;28;19921;-80
2022/10/16 03:04:14;;;;;;;;;;;;;;;;;;4986747;28;20557;-81
2022/10/16 03:07:01;;;;;;;;;;;;;;;;;;4998396;28;19944;-81
2022/10/16 03:09:47;;;;;;;;;;;;;;;;;;4989088;28;19924;-80
2022/10/16 03:12:34;;;;;;;;;;;;;;;;;;4991587;28;19910;-80
2022/10/16 03:15:20;;;;;;;;;;;;;;;;;;5001679;28;19955;-80
2022/10/16 03:18:07;;;;;;;;;;;;;;;;;;4982211;28;20002;-79
2022/10/16 03:20:53;;;;;;;;;;;;;;;;;;4988540;28;20158;-80
2022/10/16 03:23:40;;;;;;;;;;;;;;;;;;5001514;28;19917;-80
2022/10/16 03:26:26;;;;;;;;;;;;;;;;;;5003002;28;19929;-80
2022/10/16 03:29:13;;;;;;;;;;;;;;;;;;5003259;28;20001;-80
2022/10/16 03:31:59;;;;;;;;;;;;;;;;;;5001501;28;19920;-80
2022/10/16 03:34:46;;;;;;;;;;;;;;;;;;4999315;28;19918;-80
2022/10/16 03:37:32;;;;;;;;;;;;;;;;;;5001901;28;20415;-80
2022/10/16 03:40:19;;;;;;;;;;;;;;;;;;4987176;28;19913;-80
2022/10/16 03:43:06;;;;;;;;;;;;;;;;;;5000569;28;19913;-79
2022/10/16 03:45:52;;;;;;;;;;;;;;;;;;4998705;28;19914;-79
2022/10/16 03:48:39;;;;;;;;;;;;;;;;;;4987781;28;19913;-79
2022/10/16 03:51:26;;;;;;;;;;;;;;;;;;4987746;28;19936;-80
2022/10/16 03:54:12;;;;;;;;;;;;;;;;;;4998726;28;19913;-80
2022/10/16 03:56:59;;;;;;;;;;;;;;;;;;5000325;28;19947;-79
2022/10/16 03:59:45;;;;;;;;;;;;;;;;;;4989344;28;20373;-88
2022/10/16 04:02:32;;;;;;;;;;;;;;;;;;4985391;28;19914;-88
2022/10/16 04:05:18;;;;;;;;;;;;;;;;;;4998396;28;19922;-88
2022/10/16 04:08:05;;;;;;;;;;;;;;;;;;4987993;28;19916;-88
2022/10/16 04:10:51;;;;;;;;;;;;;;;;;;5003447;28;19921;-89
2022/10/16 04:13:38;;;;;;;;;;;;;;;;;;5000855;28;19921;-90
2022/10/16 04:16:24;;;;;;;;;;;;;;;;;;4987849;28;19928;-89
2022/10/16 04:19:11;;;;;;;;;;;;;;;;;;5000100;28;19920;-88
2022/10/16 04:21:57;;;;;;;;;;;;;;;;;;5000289;28;19918;-88
2022/10/16 04:24:44;;;;;;;;;;;;;;;;;;4978357;28;20259;-89
2022/10/16 04:27:31;;;;;;;;;;;;;;;;;;4989315;28;19924;-89
2022/10/16 04:30:17;;;;;;;;;;;;;;;;;;5002816;28;19925;-88
2022/10/16 04:33:04;;;;;;;;;;;;;;;;;;4988121;28;19913;-86
2022/10/16 04:35:50;;;;;;;;;;;;;;;;;;4984350;28;19925;-88
2022/10/16 04:38:37;;;;;;;;;;;;;;;;;;5001351;28;20616;-89
2022/10/16 04:41:23;;;;;;;;;;;;;;;;;;5002256;28;19921;-88
2022/10/16 04:44:10;;;;;;;;;;;;;;;;;;4988138;28;19928;-86
2022/10/16 04:46:56;;;;;;;;;;;;;;;;;;4983309;28;19933;-83
2022/10/16 04:49:43;;;;;;;;;;;;;;;;;;4985029;28;19936;-87
2022/10/16 04:52:31;;;;;;;;;;;;;;;;;;5003883;28;19920;-88
2022/10/16 04:55:17;;;;;;;;;;;;;;;;;;4988392;28;19922;-87
2022/10/16 04:58:04;;;;;;;;;;;;;;;;;;4984201;28;19914;-86
2022/10/16 05:00:50;;;;;;;;;;;;;;;;;;4988465;28;19914;-87
2022/10/16 05:03:37;;;;;;;;;;;;;;;;;;4986854;28;19921;-87
2022/10/16 05:06:23;;;;;;;;;;;;;;;;;;4986269;28;19920;-88
2022/10/16 05:09:10;;;;;;;;;;;;;;;;;;4984760;28;20423;-87
2022/10/16 05:11:56;;;;;;;;;;;;;;;;;;4987272;28;19917;-86
2022/10/16 05:14:43;;;;;;;;;;;;;;;;;;4984537;28;19948;-85
2022/10/16 05:17:29;;;;;;;;;;;;;;;;;;4999454;28;19928;-86
2022/10/16 05:20:16;;;;;;;;;;;;;;;;;;4999762;28;19917;-86
2022/10/16 05:23:02;;;;;;;;;;;;;;;;;;4994571;28;19921;-85
2022/10/16 05:25:49;;;;;;;;;;;;;;;;;;4986474;28;19932;-87
2022/10/16 05:28:35;;;;;;;;;;;;;;;;;;4984733;28;19928;-87
2022/10/16 05:31:21;;;;;;;;;;;;;;;;;;4996891;28;19913;-87
2022/10/16 05:34:08;;;;;;;;;;;;;;;;;;4988432;28;19913;-87
2022/10/16 05:36:54;;;;;;;;;;;;;;;;;;5006397;28;19921;-86
2022/10/16 05:39:41;;;;;;;;;;;;;;;;;;5003813;28;19944;-87
2022/10/16 05:42:27;;;;;;;;;;;;;;;;;;4993359;28;19920;-87
2022/10/16 05:45:14;;;;;;;;;;;;;;;;;;5004790;28;19928;-87
2022/10/16 05:48:00;;;;;;;;;;;;;;;;;;4984679;28;19920;-88
2022/10/16 05:50:47;;;;;;;;;;;;;;;;;;4988456;28;20254;-87
2022/10/16 05:53:33;;;;;;;;;;;;;;;;;;4989880;28;19913;-88
2022/10/16 05:56:20;;;;;;;;;;;;;;;;;;4989229;28;19936;-89
2022/10/16 05:59:06;;;;;;;;;;;;;;;;;;4991123;28;20623;-88
2022/10/16 06:01:53;;;;;;;;;;;;;;;;;;4989847;28;19914;-89
2022/10/16 06:04:39;;;;;;;;;;;;;;;;;;4990002;28;20107;-88
2022/10/16 06:07:26;;;;;;;;;;;;;;;;;;4988420;28;19914;-89
2022/10/16 06:10:12;;;;;;;;;;;;;;;;;;4987772;28;19920;-89
2022/10/16 06:12:59;;;;;;;;;;;;;;;;;;4991032;28;19913;-88
2022/10/16 06:15:46;;;;;;;;;;;;;;;;;;5004509;28;19918;-88
2022/10/16 06:18:32;;;;;;;;;;;;;;;;;;5003924;28;19916;-85
2022/10/16 06:21:19;;;;;;;;;;;;;;;;;;4989226;28;20653;-85
2022/10/16 06:24:05;;;;;;;;;;;;;;;;;;4986117;28;19913;-85
2022/10/16 06:26:52;;;;;;;;;;;;;;;;;;5002445;28;19936;-86
2022/10/16 06:29:38;;;;;;;;;;;;;;;;;;4986101;28;19913;-86
2022/10/16 06:32:25;;;;;;;;;;;;;;;;;;4986379;28;19920;-84
2022/10/16 06:35:11;;;;;;;;;;;;;;;;;;4990141;28;19914;-85
2022/10/16 06:37:58;;;;;;;;;;;;;;;;;;5002969;28;20679;-85
2022/10/16 06:40:44;;;;;;;;;;;;;;;;;;4992023;28;19914;-85
2022/10/16 06:43:37;;;;;;;;;;;;;;;;;;5003421;28;20564;-84
2022/10/16 06:46:23;;;;;;;;;;;;;;;;;;4989759;28;19927;-85
2022/10/16 06:49:10;;;;;;;;;;;;;;;;;;4989589;28;19917;-85
2022/10/16 06:51:56;;;;;;;;;;;;;;;;;;4986418;28;19924;-86
2022/10/16 06:54:43;;;;;;;;;;;;;;;;;;5000890;28;19921;-84
2022/10/16 06:57:29;;;;;;;;;;;;;;;;;;4994127;28;20305;-84
2022/10/16 07:00:16;;;;;;;;;;;;;;;;;;4987399;28;19918;-87
2022/10/16 07:03:02;;;;;;;;;;;;;;;;;;4994298;28;19928;-84
2022/10/16 07:05:49;;;;;;;;;;;;;;;;;;4980685;28;19914;-85
2022/10/16 07:08:36;;;;;;;;;;;;;;;;;;4996228;28;20373;-84
2022/10/16 07:11:22;;;;;;;;;;;;;;;;;;4987406;28;19910;-83
2022/10/16 07:14:09;;;;;;;;;;;;;;;;;;4977572;28;20378;-83
2022/10/16 07:16:55;;;;;;;;;;;;;;;;;;4974181;28;19929;-88
2022/10/16 07:19:42;;;;;;;;;;;;;;;;;;4981021;28;19923;-86
2022/10/16 07:22:28;;;;;;;;;;;;;;;;;;4994032;28;20360;-85
2022/10/16 07:25:15;;;;;;;;;;;;;;;;;;4979125;28;19926;-86
2022/10/16 07:28:01;;;;;;;;;;;;;;;;;;4980564;28;19918;-84
2022/10/16 07:30:48;;;;;;;;;;;;;;;;;;4993177;28;19929;-86
2022/10/16 07:33:34;;;;;;;;;;;;;;;;;;4985156;28;19920;-83
2022/10/16 07:36:21;;;;;;;;;;;;;;;;;;4977432;28;19922;-85
2022/10/16 07:39:08;;;;;;;;;;;;;;;;;;4980461;28;19929;-84
2022/10/16 07:41:54;;;;;;;;;;;;;;;;;;4987154;28;19925;-85
2022/10/16 07:44:41;;;;;;;;;;;;;;;;;;4989074;28;19920;-83
2022/10/16 07:47:28;;;;;;;;;;;;;;;;;;4974844;28;19932;-84
2022/10/16 07:50:14;;;;;;;;;;;;;;;;;;4978278;28;19918;-84
2022/10/16 07:53:00;;;;;;;;;;;;;;;;;;4993942;28;19919;-83
2022/10/16 07:55:47;;;;;;;;;;;;;;;;;;4977869;28;19917;-83
2022/10/16 07:58:34;;;;;;;;;;;;;;;;;;4988660;28;19924;-83
2022/10/16 08:01:20;;;;;;;;;;;;;;;;;;4983224;28;19932;-84
2022/10/16 08:04:07;;;;;;;;;;;;;;;;;;4984730;28;19914;-84
2022/10/16 08:06:54;;;;;;;;;;;;;;;;;;4983883;28;19918;-84
2022/10/16 08:09:40;;;;;;;;;;;;;;;;;;4983278;28;19924;-77
2022/10/16 08:12:27;;;;;;;;;;;;;;;;;;4998058;28;19914;-77
2022/10/16 08:15:13;;;;;;;;;;;;;;;;;;4998121;28;20348;-78
2022/10/16 08:18:00;;;;;;;;;;;;;;;;;;5000259;28;19932;-78
2022/10/16 08:20:46;;;;;;;;;;;;;;;;;;4985766;28;19921;-78
2022/10/16 08:23:33;;;;;;;;;;;;;;;;;;4996894;28;20608;-77
2022/10/16 08:25:59;;;;;;;;;;;;;;;;;;4972263;28;20464;-78
2022/10/16 08:28:45;;;;;;;;;;;;;;;;;;4998508;28;20035;-80
2022/10/16 08:31:31;;;;;;;;;;;;;;;;;;4981278;28;19940;-77
2022/10/16 08:34:17;;;;;;;;;;;;;;;;;;4997676;28;19918;-78
2022/10/16 08:37:04;;;;;;;;;;;;;;;;;;4981666;28;19925;-79
2022/10/16 08:39:51;;;;;;;;;;;;;;;;;;4998507;28;19997;-78
2022/10/16 08:42:37;;;;;;;;;;;;;;;;;;4981028;28;19925;-79
2022/10/16 08:45:24;;;;;;;;;;;;;;;;;;4984399;28;19929;-78
2022/10/16 08:48:10;;;;;;;;;;;;;;;;;;4999554;28;19914;-78
2022/10/16 08:50:57;;;;;;;;;;;;;;;;;;4979258;28;19943;-78
2022/10/16 08:53:43;;;;;;;;;;;;;;;;;;4996501;28;20318;-78
2022/10/16 08:56:30;;;;;;;;;;;;;;;;;;4996100;28;19921;-79
2022/10/16 08:59:16;;;;;;;;;;;;;;;;;;5000027;28;19914;-79
2022/10/16 09:02:03;;;;;;;;;;;;;;;;;;4984453;28;20661;-80
2022/10/16 09:04:49;;;;;;;;;;;;;;;;;;4984962;28;19914;-79
2022/10/16 09:07:38;;;;;;;;;;;;;;;;;;5002093;28;20020;-78
2022/10/16 09:10:24;;;;;;;;;;;;;;;;;;4986357;28;20293;-78
2022/10/16 09:13:11;;;;;;;;;;;;;;;;;;5004464;28;19932;-78
2022/10/16 09:15:57;;;;;;;;;;;;;;;;;;5004393;28;20395;-79
2022/10/16 09:18:44;;;;;;;;;;;;;;;;;;4991594;28;19925;-79
2022/10/16 09:21:30;;;;;;;;;;;;;;;;;;4990519;28;19914;-79
2022/10/16 09:24:17;;;;;;;;;;;;;;;;;;4999557;28;20379;-80
2022/10/16 09:27:03;;;;;;;;;;;;;;;;;;5002649;28;19925;-80
2022/10/16 09:29:50;;;;;;;;;;;;;;;;;;5001360;28;19916;-79
2022/10/16 09:32:36;;;;;;;;;;;;;;;;;;4986673;28;20515;-78
2022/10/16 09:35:23;;;;;;;;;;;;;;;;;;4998445;28;19914;-79
2022/10/16 09:38:09;;;;;;;;;;;;;;;;;;4988923;28;20639;-79
2022/10/16 09:40:56;;;;;;;;;;;;;;;;;;4990205;28;19918;-78
2022/10/16 09:43:42;;;;;;;;;;;;;;;;;;5002601;28;19910;-79
2022/10/16 09:46:29;;;;;;;;;;;;;;;;;;5002331;28;19918;-79
2022/10/16 09:49:15;;;;;;;;;;;;;;;;;;4988905;28;19929;-78
2022/10/16 09:52:02;;;;;;;;;;;;;;;;;;5001451;28;19913;-78
2022/10/16 09:54:51;;;;;;;;;;;;;;;;;;5005155;28;19925;-78
2022/10/16 09:57:37;;;;;;;;;;;;;;;;;;5005170;28;20207;-78
2022/10/16 10:00:24;;;;;;;;;;;;;;;;;;5001187;28;19913;-79
2022/10/16 10:03:10;;;;;;;;;;;;;;;;;;5004250;28;19937;-78
2022/10/16 10:05:57;;;;;;;;;;;;;;;;;;5000069;28;19941;-79
2022/10/16 10:08:43;;;;;;;;;;;;;;;;;;5005283;28;19913;-78
2022/10/16 10:11:29;;;;;;;;;;;;;;;;;;4987079;28;19933;-79
2022/10/16 10:14:16;;;;;;;;;;;;;;;;;;4992583;28;20420;-78
2022/10/16 10:17:02;;;;;;;;;;;;;;;;;;4991231;28;19921;-78
2022/10/16 10:19:49;;;;;;;;;;;;;;;;;;4990856;28;19918;-79
2022/10/16 10:22:35;;;;;;;;;;;;;;;;;;4994860;28;19920;-78
2022/10/16 10:25:22;;;;;;;;;;;;;;;;;;4999560;28;20416;-83
2022/10/16 10:28:09;;;;;;;;;;;;;;;;;;5001396;28;20292;-78
2022/10/16 10:30:55;;;;;;;;;;;;;;;;;;4998969;28;19966;-78
2022/10/16 10:33:42;;;;;;;;;;;;;;;;;;5001526;28;19925;-78
2022/10/16 10:36:29;;;;;;;;;;;;;;;;;;4999183;28;20044;-78
2022/10/16 10:39:15;;;;;;;;;;;;;;;;;;4999885;28;19921;-77
2022/10/16 10:42:02;;;;;;;;;;;;;;;;;;5006144;28;19924;-77
2022/10/16 10:44:48;;;;;;;;;;;;;;;;;;4978822;28;19924;-78
2022/10/16 10:47:35;;;;;;;;;;;;;;;;;;4983180;28;19914;-78
2022/10/16 10:50:21;;;;;;;;;;;;;;;;;;4984729;28;19913;-78
2022/10/16 10:53:08;;;;;;;;;;;;;;;;;;4985413;28;19914;-77
2022/10/16 10:55:54;;;;;;;;;;;;;;;;;;4991739;28;20370;-78
2022/10/16 10:58:41;;;;;;;;;;;;;;;;;;4989644;28;19918;-78
2022/10/16 11:01:27;;;;;;;;;;;;;;;;;;4998604;28;20292;-78
2022/10/16 11:04:14;;;;;;;;;;;;;;;;;;4996547;28;19939;-77
2022/10/16 11:07:00;;;;;;;;;;;;;;;;;;4980687;28;19933;-78
2022/10/16 11:09:47;;;;;;;;;;;;;;;;;;5000359;28;19928;-78
2022/10/16 11:12:33;;;;;;;;;;;;;;;;;;5000649;28;19940;-79
2022/10/16 11:15:19;;;;;;;;;;;;;;;;;;4976616;28;20613;-78
2022/10/16 11:18:06;;;;;;;;;;;;;;;;;;4984146;28;19929;-77
2022/10/16 11:20:52;;;;;;;;;;;;;;;;;;4999203;28;19914;-78
2022/10/16 11:23:39;;;;;;;;;;;;;;;;;;4998244;28;19930;-77
2022/10/16 11:26:25;;;;;;;;;;;;;;;;;;4977752;28;19936;-77
2022/10/16 11:29:12;;;;;;;;;;;;;;;;;;4996637;28;19938;-78
2022/10/16 11:31:58;;;;;;;;;;;;;;;;;;4990765;28;20209;-80
2022/10/16 11:34:45;;;;;;;;;;;;;;;;;;4981309;28;19932;-81
2022/10/16 11:37:31;;;;;;;;;;;;;;;;;;4980935;28;19925;-78
2022/10/16 11:40:18;;;;;;;;;;;;;;;;;;5000114;28;19917;-81
2022/10/16 11:43:04;;;;;;;;;;;;;;;;;;5000488;28;20017;-81
2022/10/16 11:45:51;;;;;;;;;;;;;;;;;;4988173;28;19909;-81
2022/10/16 11:48:37;;;;;;;;;;;;;;;;;;4998347;28;19913;-81
2022/10/16 11:51:24;;;;;;;;;;;;;;;;;;4985885;28;19920;-82
2022/10/16 11:54:10;;;;;;;;;;;;;;;;;;4997632;28;20717;-82
2022/10/16 11:56:57;;;;;;;;;;;;;;;;;;4984688;28;19926;-80
2022/10/16 11:59:43;;;;;;;;;;;;;;;;;;4987331;28;19935;-82
2022/10/16 12:02:30;;;;;;;;;;;;;;;;;;5001943;28;19917;-82
2022/10/16 12:05:16;;;;;;;;;;;;;;;;;;4984706;28;19917;-83
2022/10/16 12:08:03;;;;;;;;;;;;;;;;;;4988129;28;20451;-82
2022/10/16 12:10:49;;;;;;;;;;;;;;;;;;5000107;28;20396;-82
2022/10/16 12:13:36;;;;;;;;;;;;;;;;;;4982157;28;19913;-82
2022/10/16 12:16:22;;;;;;;;;;;;;;;;;;4986478;28;19917;-82
2022/10/16 12:19:09;;;;;;;;;;;;;;;;;;4984165;28;19948;-82
2022/10/16 12:21:55;;;;;;;;;;;;;;;;;;5001915;28;19910;-82
2022/10/16 12:24:42;;;;;;;;;;;;;;;;;;4986065;28;19918;-81
2022/10/16 12:27:28;;;;;;;;;;;;;;;;;;4987115;28;19922;-82
2022/10/16 12:30:15;;;;;;;;;;;;;;;;;;4980688;28;19914;-82
2022/10/16 12:33:01;;;;;;;;;;;;;;;;;;4999447;28;20261;-82
2022/10/16 12:35:48;;;;;;;;;;;;;;;;;;4986447;28;19920;-82
2022/10/16 12:38:34;;;;;;;;;;;;;;;;;;4999799;28;20324;-83
2022/10/16 12:41:21;;;;;;;;;;;;;;;;;;4986785;28;19913;-82
2022/10/16 12:44:07;;;;;;;;;;;;;;;;;;5001835;28;19924;-82
2022/10/16 12:46:54;;;;;;;;;;;;;;;;;;4987857;28;19914;-82
2022/10/16 12:49:40;;;;;;;;;;;;;;;;;;4989389;28;19913;-82
2022/10/16 12:52:27;;;;;;;;;;;;;;;;;;4992008;28;19914;-83
2022/10/16 12:55:14;;;;;;;;;;;;;;;;;;4986806;28;19944;-83
2022/10/16 12:58:00;;;;;;;;;;;;;;;;;;4991619;28;19929;-83
2022/10/16 13:00:47;;;;;;;;;;;;;;;;;;4992263;28;20665;-83
2022/10/16 13:03:33;;;;;;;;;;;;;;;;;;4989821;28;19913;-83
2022/10/16 13:06:20;;;;;;;;;;;;;;;;;;4988548;28;19918;-81
2022/10/16 13:09:06;;;;;;;;;;;;;;;;;;5001457;28;19936;-82
2022/10/16 13:11:53;;;;;;;;;;;;;;;;;;4988081;28;19922;-82
2022/10/16 13:14:39;;;;;;;;;;;;;;;;;;4982707;28;19924;-81
2022/10/16 13:17:26;;;;;;;;;;;;;;;;;;4994969;28;19925;-80
2022/10/16 13:20:12;;;;;;;;;;;;;;;;;;4986265;28;20017;-81
2022/10/16 13:22:59;;;;;;;;;;;;;;;;;;4999692;28;19914;-80
2022/10/16 13:25:45;;;;;;;;;;;;;;;;;;4997072;28;19921;-79
2022/10/16 13:28:32;;;;;;;;;;;;;;;;;;4999941;28;19918;-79
2022/10/16 13:31:18;;;;;;;;;;;;;;;;;;4998601;28;20385;-81
2022/10/16 13:34:05;;;;;;;;;;;;;;;;;;4998714;28;19920;-82
2022/10/16 13:36:51;;;;;;;;;;;;;;;;;;4985497;28;19928;-81
2022/10/16 13:39:38;;;;;;;;;;;;;;;;;;4997441;28;19945;-81
2022/10/16 13:42:24;;;;;;;;;;;;;;;;;;4986080;28;19924;-81
2022/10/16 13:45:11;;;;;;;;;;;;;;;;;;4997569;28;19914;-81
2022/10/16 13:47:57;;;;;;;;;;;;;;;;;;4999812;28;19914;-81
2022/10/16 13:50:44;;;;;;;;;;;;;;;;;;4988177;28;19941;-83
2022/10/16 13:53:30;;;;;;;;;;;;;;;;;;4986119;28;19928;-83
2022/10/16 13:56:17;;;;;;;;;;;;;;;;;;5002204;28;19928;-82
2022/10/16 13:59:03;;;;;;;;;;;;;;;;;;4986487;28;19913;-83
2022/10/16 14:01:50;;;;;;;;;;;;;;;;;;4997031;28;19922;-84
2022/10/16 14:04:38;;;;;;;;;;;;;;;;;;4993005;28;20215;-84
2022/10/16 14:07:25;;;;;;;;;;;;;;;;;;4976755;28;19925;-83
2022/10/16 14:10:11;;;;;;;;;;;;;;;;;;4977706;28;19920;-82
2022/10/16 14:12:58;;;;;;;;;;;;;;;;;;4982147;28;19914;-81
2022/10/16 14:15:44;;;;;;;;;;;;;;;;;;4999345;28;19921;-80
2022/10/16 14:18:31;;;;;;;;;;;;;;;;;;5002686;28;20342;-81
2022/10/16 14:21:17;;;;;;;;;;;;;;;;;;4989459;28;19920;-79
2022/10/16 14:24:04;;;;;;;;;;;;;;;;;;4996091;28;20773;-82
2022/10/16 14:26:50;;;;;;;;;;;;;;;;;;5002606;28;19929;-82
2022/10/16 14:29:37;;;;;;;;;;;;;;;;;;4985014;28;19921;-82
2022/10/16 14:32:23;;;;;;;;;;;;;;;;;;5000049;28;19913;-81
2022/10/16 14:35:10;;;;;;;;;;;;;;;;;;4989709;28;19933;-82
2022/10/16 14:37:56;;;;;;;;;;;;;;;;;;5001294;28;19925;-82
2022/10/16 14:40:43;;;;;;;;;;;;;;;;;;4985097;28;19921;-84
2022/10/16 14:43:29;;;;;;;;;;;;;;;;;;5002943;28;19920;-82
2022/10/16 14:46:15;;;;;;;;;;;;;;;;;;4988350;28;19921;-83
2022/10/16 14:49:02;;;;;;;;;;;;;;;;;;4998711;28;19917;-84
2022/10/16 14:51:48;;;;;;;;;;;;;;;;;;5002675;28;19919;-78
2022/10/16 14:54:35;;;;;;;;;;;;;;;;;;5002628;28;20404;-83
2022/10/16 14:57:22;;;;;;;;;;;;;;;;;;4998092;28;19926;-82
2022/10/16 15:00:08;;;;;;;;;;;;;;;;;;4999550;28;19937;-82
2022/10/16 15:02:55;;;;;;;;;;;;;;;;;;4977522;28;19993;-82
2022/10/16 15:05:41;;;;;;;;;;;;;;;;;;4981645;28;20407;-82
2022/10/16 15:08:28;;;;;;;;;;;;;;;;;;4984233;28;19917;-83
2022/10/16 15:11:14;;;;;;;;;;;;;;;;;;4997296;28;20512;-81
2022/10/16 15:14:01;;;;;;;;;;;;;;;;;;4987058;28;19918;-81
2022/10/16 15:16:47;;;;;;;;;;;;;;;;;;4978140;28;20408;-82
2022/10/16 15:19:34;;;;;;;;;;;;;;;;;;4997010;28;19928;-82
2022/10/16 15:22:23;;;;;;;;;;;;;;;;;;4984785;28;19921;-82
2022/10/16 15:25:09;;;;;;;;;;;;;;;;;;4984075;28;19913;-82
2022/10/16 15:27:56;;;;;;;;;;;;;;;;;;4986574;28;19926;-82
2022/10/16 15:30:44;;;;;;;;;;;;;;;;;;4983045;28;19921;-83
2022/10/16 15:33:33;;;;;;;;;;;;;;;;;;4976871;28;19929;-82
2022/10/16 15:36:20;;;;;;;;;;;;;;;;;;4993246;28;19921;-82
2022/10/16 15:39:06;;;;;;;;;;;;;;;;;;4992571;28;19921;-83
2022/10/16 15:41:53;;;;;;;;;;;;;;;;;;4989079;28;19917;-80
2022/10/16 15:44:39;;;;;;;;;;;;;;;;;;4987510;28;20373;-80
2022/10/16 15:47:26;;;;;;;;;;;;;;;;;;4986263;28;20253;-80
2022/10/16 15:50:12;;;;;;;;;;;;;;;;;;4997370;28;20361;-80
2022/10/16 15:52:59;;;;;;;;;;;;;;;;;;4999646;28;19914;-80
2022/10/16 15:55:45;;;;;;;;;;;;;;;;;;4998461;28;19928;-80
2022/10/16 15:58:32;;;;;;;;;;;;;;;;;;4983765;28;20381;-80
2022/10/16 16:01:18;;;;;;;;;;;;;;;;;;5001237;28;19924;-81
2022/10/16 16:04:05;;;;;;;;;;;;;;;;;;4988608;28;19921;-80
2022/10/16 16:06:51;;;;;;;;;;;;;;;;;;4997936;28;20377;-81
2022/10/16 16:09:38;;;;;;;;;;;;;;;;;;5001597;28;19924;-80
2022/10/16 16:12:24;;;;;;;;;;;;;;;;;;4998273;28;19961;-83
2022/10/16 16:15:11;;;;;;;;;;;;;;;;;;4979704;28;19921;-82
2022/10/16 16:17:57;;;;;;;;;;;;;;;;;;4993994;28;19929;-82
2022/10/16 16:20:43;;;;;;;;;;;;;;;;;;4995803;28;19918;-82
2022/10/16 16:23:30;;;;;;;;;;;;;;;;;;4980993;28;19924;-82
2022/10/16 16:26:17;;;;;;;;;;;;;;;;;;4990000;28;20715;-82
2022/10/16 16:29:04;;;;;;;;;;;;;;;;;;4982385;28;20323;-82
2022/10/16 16:31:56;;;;;;;;;;;;;;;;;;4984071;28;19925;-83
2022/10/16 16:34:43;;;;;;;;;;;;;;;;;;4993272;28;19924;-81
2022/10/16 16:37:29;;;;;;;;;;;;;;;;;;4981135;28;19925;-82
2022/10/16 16:40:16;;;;;;;;;;;;;;;;;;4991093;28;19918;-82
2022/10/16 16:43:03;;;;;;;;;;;;;;;;;;4982840;28;19939;-83
2022/10/16 16:45:50;;;;;;;;;;;;;;;;;;4985791;28;20405;-84
2022/10/16 16:48:36;;;;;;;;;;;;;;;;;;4983291;28;19917;-83
2022/10/16 16:51:23;;;;;;;;;;;;;;;;;;4986488;28;19924;-82
2022/10/16 16:54:09;;;;;;;;;;;;;;;;;;5001425;28;19913;-83
2022/10/16 16:56:56;;;;;;;;;;;;;;;;;;4983553;28;19932;-82
2022/10/16 16:59:42;;;;;;;;;;;;;;;;;;4998500;28;19917;-82
2022/10/16 17:02:29;;;;;;;;;;;;;;;;;;4981907;28;19913;-83
2022/10/16 17:05:15;;;;;;;;;;;;;;;;;;4986060;28;20359;-83
2022/10/16 17:08:02;;;;;;;;;;;;;;;;;;5002789;28;19914;-93
2022/10/16 17:10:52;;;;;;;;;;;;;;;;;;4995437;28;20300;-92
2022/10/16 17:13:38;;;;;;;;;;;;;;;;;;4989537;28;19924;-91
2022/10/16 17:16:25;;;;;;;;;;;;;;;;;;4991397;28;19928;-92
2022/10/16 17:19:11;;;;;;;;;;;;;;;;;;5004314;28;20427;-90
2022/10/16 17:21:58;;;;;;;;;;;;;;;;;;5000268;28;19913;-93
2022/10/16 17:24:45;;;;;;;;;;;;;;;;;;5000796;28;19925;-89
2022/10/16 17:27:33;;;;;;;;;;;;;;;;;;4997077;28;19925;-91
2022/10/16 17:30:19;;;;;;;;;;;;;;;;;;4999481;28;19913;-90
2022/10/16 17:33:06;;;;;;;;;;;;;;;;;;5008909;28;19909;-89
2022/10/16 17:35:52;;;;;;;;;;;;;;;;;;5002320;28;19914;-83
2022/10/16 17:38:39;;;;;;;;;;;;;;;;;;4990668;28;19937;-83
2022/10/16 17:41:25;;;;;;;;;;;;;;;;;;4982037;28;19965;-83
2022/10/16 17:44:18;;;;;;;;;;;;;;;;;;4999871;28;19918;-83
2022/10/16 17:47:05;;;;;;;;;;;;;;;;;;4995944;28;20320;-84
2022/10/16 17:49:51;;;;;;;;;;;;;;;;;;4989540;28;19917;-82
2022/10/16 17:52:38;;;;;;;;;;;;;;;;;;4990649;28;19913;-82
2022/10/16 17:55:24;;;;;;;;;;;;;;;;;;4992034;28;19914;-82
2022/10/16 17:58:11;;;;;;;;;;;;;;;;;;4980002;28;20263;-81
2022/10/16 18:00:57;;;;;;;;;;;;;;;;;;4977892;28;19918;-84
2022/10/16 18:03:44;;;;;;;;;;;;;;;;;;4977571;28;19951;-83
2022/10/16 18:06:30;;;;;;;;;;;;;;;;;;4990125;28;19918;-83
2022/10/16 18:09:17;;;;;;;;;;;;;;;;;;4988706;28;19921;-83
2022/10/16 18:12:03;;;;;;;;;;;;;;;;;;4990079;28;19934;-82
2022/10/16 18:14:52;;;;;;;;;;;;;;;;;;4975873;28;19918;-91
2022/10/16 18:17:38;;;;;;;;;;;;;;;;;;4992214;28;19925;-81
2022/10/16 18:20:25;;;;;;;;;;;;;;;;;;4988528;28;19909;-82
2022/10/16 18:23:11;;;;;;;;;;;;;;;;;;5006611;28;20287;-80
2022/10/16 18:25:37;;;;;;;;;;;;;;;;;;5000557;28;19932;-78
2022/10/16 18:28:22;;;;;;;;;;;;;;;;;;4983578;28;19924;-79
2022/10/16 18:30:51;;;;;;;;;;;;;;;;;;4980823;28;19921;-78
2022/10/16 18:33:19;;;;;;;;;;;;;;;;;;4995625;28;19918;-77
2022/10/16 18:35:45;;;;;;;;;;;;;;;;;;4992183;28;19917;-77
2022/10/16 18:38:11;;;;;;;;;;;;;;;;;;4978189;28;19971;-77
2022/10/16 18:40:37;;;;;;;;;;;;;;;;;;4994510;28;19983;-77
2022/10/16 18:43:03;;;;;;;;;;;;;;;;;;4979745;28;19953;-77
2022/10/16 18:45:30;;;;;;;;;;;;;;;;;;4995949;28;20408;-77
2022/10/16 18:47:56;;;;;;;;;;;;;;;;;;4977349;28;19985;-78
2022/10/16 18:50:22;;;;;;;;;;;;;;;;;;4978740;28;19922;-77
2022/10/16 18:52:48;;;;;;;;;;;;;;;;;;4974837;28;19952;-78